Pays
Station

 

Conditions  météo  pour  Kansai International Airport  -  Japon    Japon

  
20 °C
    
 
 

METAR pour Kansai International Airport :

RJBB 160400Z 04009KT 010V070 9999 FEW025 20/10 Q1022 NOSIG

 

Voici le bulletin pour Kansai International Airport - Japon.
 
Le bulletin a été fait il y a 29 minutes, à 04:00 UTC .
Le vent soufflait à la vitesse de 4.6 mètres par seconde de Nord-est (040°), variant entre Nord (010°) et Est/Nord-est (070°).
 
La température était de 20 °C, avec un point de rosée à 10 °C.
La pression atmosphérique était de 1022 hPa.
L'humidité relative était de 52.5%.
 
Il y avait 1 à 2/8ème de nébulosité à une hauteur de 762 mètres.
 
La visibilité globale était de supérieure à 10 kilomètres.
 

 
 
 

Pays :   A   B   C   D   E   F   G   H   I   J   K   L   M   N   O   P   Q   R   S   T   U   V   W   Y   Z

 

Partenaires :  Info Météo avec Met'info
Météo Marine avec MeteoMarine.net
Infos Site  |  Infos Légales  |  Crédits  |  Confidentialité
Contactez-nous  |  Ajouter aux favoris
© 2013-2019 METAR - Tous droits réservés